Time;durP1;ratioP1;P1;durP2;ratioP2;P2;SDS_P1;SDS_P2;PMS_P1;PMS_P2;Temp;Humidity;BMP_temperature;BMP_pressure;BME280_temperature;BME280_humidity;BME280_pressure;Samples;Min_cycle;Max_cycle;Signal;HPM_P1;HPM_P2
2024/01/23 00:00:18;;;;;;;63.43;36.20;;;;;;;;;;4361875;32;316818;-79
2024/01/23 00:02:47;;;;;;;70.97;33.90;;;;;;;;;;4355187;32;418517;-79
2024/01/23 00:05:15;;;;;;;55.80;30.57;;;;;;;;;;4347237;32;318728;-79
2024/01/23 00:07:42;;;;;;;51.43;28.23;;;;;;;;;;4333113;32;416991;-79
2024/01/23 00:10:10;;;;;;;53.97;27.67;;;;;;;;;;4348299;32;318599;-78
2024/01/23 00:12:41;;;;;;;56.30;29.20;;;;;;;;;;4336995;32;319002;-78
2024/01/23 00:15:10;;;;;;;58.87;34.17;;;;;;;;;;4351067;32;319230;-78
2024/01/23 00:17:38;;;;;;;66.93;37.33;;;;;;;;;;4374350;32;318807;-77
2024/01/23 00:20:10;;;;;;;64.17;32.90;;;;;;;;;;4408187;32;317738;-78
2024/01/23 00:22:36;;;;;;;82.33;36.37;;;;;;;;;;4397726;32;318456;-78
2024/01/23 00:25:08;;;;;;;65.67;36.23;;;;;;;;;;4405468;32;322469;-78
2024/01/23 00:27:36;;;;;;;75.13;36.70;;;;;;;;;;4387262;32;318819;-78
2024/01/23 00:30:04;;;;;;;55.73;31.23;;;;;;;;;;4409401;32;318617;-78
2024/01/23 00:32:34;;;;;;;64.00;34.50;;;;;;;;;;4398947;32;318585;-78
2024/01/23 00:35:02;;;;;;;63.00;32.30;;;;;;;;;;4395235;32;318976;-78
2024/01/23 00:37:32;;;;;;;67.60;35.73;;;;;;;;;;4380813;32;318679;-77
2024/01/23 00:40:03;;;;;;;78.17;38.47;;;;;;;;;;4408315;32;318873;-78
2024/01/23 00:42:31;;;;;;;79.00;37.80;;;;;;;;;;4383295;32;319087;-77
2024/01/23 00:47:44;;;;;;;102.73;46.17;;;;;;;;;;4370712;32;391370;-79
2024/01/23 00:50:11;;;;;;;76.33;38.17;;;;;;;;;;4409546;32;320446;-77
2024/01/23 00:52:46;;;;;;;58.27;29.93;;;;;;;;;;4380227;32;318061;-77
2024/01/23 00:55:16;;;;;;;65.50;30.97;;;;;;;;;;4403378;32;319105;-77
2024/01/23 00:57:43;;;;;;;50.83;27.53;;;;;;;;;;4385843;32;420071;-77
2024/01/23 01:00:16;;;;;;;48.10;28.63;;;;;;;;;;4394600;32;318594;-78
2024/01/23 01:02:45;;;;;;;69.67;34.70;;;;;;;;;;4377024;32;418465;-78
2024/01/23 01:05:16;;;;;;;83.10;38.20;;;;;;;;;;4395443;32;319938;-78
2024/01/23 01:07:46;;;;;;;84.87;44.47;;;;;;;;;;4374412;32;416697;-78
2024/01/23 01:10:13;;;;;;;109.13;50.83;;;;;;;;;;4407187;32;318680;-78
2024/01/23 01:12:44;;;;;;;103.20;50.57;;;;;;;;;;4391759;32;320402;-78
2024/01/23 01:15:14;;;;;;;110.87;55.97;;;;;;;;;;4407868;32;318793;-78
2024/01/23 01:17:46;;;;;;;117.27;52.27;;;;;;;;;;4391091;32;320243;-78
2024/01/23 01:20:15;;;;;;;118.47;54.00;;;;;;;;;;4392463;32;319876;-78
2024/01/23 01:22:46;;;;;;;128.63;56.73;;;;;;;;;;4380823;32;419770;-78
2024/01/23 01:25:15;;;;;;;110.30;52.87;;;;;;;;;;4387330;32;320413;-78
2024/01/23 01:27:44;;;;;;;103.40;49.57;;;;;;;;;;4366191;32;418413;-78
2024/01/23 01:30:15;;;;;;;122.70;54.90;;;;;;;;;;4407962;32;319669;-78
2024/01/23 01:32:44;;;;;;;123.47;54.70;;;;;;;;;;4393218;32;415454;-78
2024/01/23 01:35:13;;;;;;;115.67;57.70;;;;;;;;;;4393781;32;319854;-78
2024/01/23 01:37:44;;;;;;;119.60;60.60;;;;;;;;;;4382053;32;320462;-78
2024/01/23 01:40:15;;;;;;;134.17;64.57;;;;;;;;;;4397148;32;320785;-78
2024/01/23 01:42:43;;;;;;;128.73;63.17;;;;;;;;;;4389919;32;319903;-78
2024/01/23 01:45:19;;;;;;;130.77;62.10;;;;;;;;;;4393031;32;319849;-78
2024/01/23 01:47:47;;;;;;;112.57;57.63;;;;;;;;;;4380225;32;420984;-79
2024/01/23 01:50:14;;;;;;;117.23;57.10;;;;;;;;;;4405050;32;320374;-79
2024/01/23 01:52:43;;;;;;;113.70;55.50;;;;;;;;;;4376726;32;319954;-79
2024/01/23 01:55:15;;;;;;;127.87;56.93;;;;;;;;;;4399448;32;320310;-78
2024/01/23 01:57:44;;;;;;;113.17;57.93;;;;;;;;;;4366860;32;419982;-78
2024/01/23 02:00:13;;;;;;;97.07;44.07;;;;;;;;;;4401380;32;320297;-77
2024/01/23 02:02:44;;;;;;;80.00;37.47;;;;;;;;;;4398632;32;319219;-77
2024/01/23 02:05:14;;;;;;;71.73;34.03;;;;;;;;;;4413951;32;317670;-77
2024/01/23 02:07:51;;;;;;;64.00;30.43;;;;;;;;;;4391505;32;318831;-77
2024/01/23 02:10:22;;;;;;;46.80;26.10;;;;;;;;;;4375648;32;318589;-78
2024/01/23 02:12:51;;;;;;;54.30;27.83;;;;;;;;;;4392108;32;318709;-77
2024/01/23 02:15:18;;;;;;;64.27;28.70;;;;;;;;;;4377728;32;351278;-79
2024/01/23 02:17:49;;;;;;;55.43;27.13;;;;;;;;;;4391179;32;319175;-78
2024/01/23 02:20:16;;;;;;;59.13;28.80;;;;;;;;;;4386359;32;318703;-77
2024/01/23 02:22:44;;;;;;;52.30;26.90;;;;;;;;;;4379381;32;420011;-77
2024/01/23 02:25:17;;;;;;;57.30;27.30;;;;;;;;;;4391873;32;318575;-77
2024/01/23 02:27:47;;;;;;;58.83;28.10;;;;;;;;;;4384701;32;418290;-77
2024/01/23 02:30:16;;;;;;;54.03;29.47;;;;;;;;;;4397719;32;319182;-77
2024/01/23 02:32:45;;;;;;;53.50;29.27;;;;;;;;;;4379202;32;417294;-77
2024/01/23 02:35:14;;;;;;;62.37;28.20;;;;;;;;;;4390265;32;317780;-77
2024/01/23 02:37:40;;;;;;;51.23;25.87;;;;;;;;;;4383043;32;331571;-77
2024/01/23 02:40:11;;;;;;;55.60;28.00;;;;;;;;;;4399914;32;319630;-77
2024/01/23 02:42:40;;;;;;;51.13;27.17;;;;;;;;;;4391685;32;318371;-77
2024/01/23 02:45:10;;;;;;;61.60;27.17;;;;;;;;;;4407494;32;318767;-77
2024/01/23 02:47:36;;;;;;;51.17;25.07;;;;;;;;;;4361896;32;319213;-77
2024/01/23 02:52:49;;;;;;;49.93;25.57;;;;;;;;;;4324796;32;319581;-77
2024/01/23 02:55:17;;;;;;;50.57;25.90;;;;;;;;;;4341688;32;318722;-77
2024/01/23 02:57:47;;;;;;;41.47;24.53;;;;;;;;;;4351276;32;418561;-77
2024/01/23 03:00:16;;;;;;;45.63;25.53;;;;;;;;;;4348403;32;318754;-78
2024/01/23 03:02:46;;;;;;;47.57;24.83;;;;;;;;;;4312465;33;419004;-78
2024/01/23 03:05:16;;;;;;;53.90;26.63;;;;;;;;;;4342526;32;360457;-77
2024/01/23 03:07:46;;;;;;;64.13;33.27;;;;;;;;;;4316482;32;418166;-77
2024/01/23 03:10:15;;;;;;;64.60;33.57;;;;;;;;;;4330328;32;319200;-77
2024/01/23 03:12:48;;;;;;;80.20;37.33;;;;;;;;;;4325513;32;418957;-77
2024/01/23 03:15:20;;;;;;;86.50;37.23;;;;;;;;;;4347334;32;318803;-77
2024/01/23 03:17:50;;;;;;;77.77;36.70;;;;;;;;;;4328556;32;418002;-77
2024/01/23 03:20:18;;;;;;;58.40;31.90;;;;;;;;;;4328475;32;398292;-77
2024/01/23 03:22:45;;;;;;;71.90;32.77;;;;;;;;;;4343974;32;345696;-78
2024/01/23 03:25:13;;;;;;;45.93;24.90;;;;;;;;;;4332722;33;319332;-78
2024/01/23 03:27:40;;;;;;;66.43;30.03;;;;;;;;;;4318878;32;319424;-78
2024/01/23 03:30:12;;;;;;;52.03;28.33;;;;;;;;;;4340858;32;319280;-77
2024/01/23 03:32:42;;;;;;;53.40;28.67;;;;;;;;;;4334626;32;319822;-77
2024/01/23 03:35:12;;;;;;;54.67;27.73;;;;;;;;;;4333506;32;319268;-77
2024/01/23 03:37:40;;;;;;;51.97;29.10;;;;;;;;;;4329035;32;319160;-77
2024/01/23 03:40:14;;;;;;;65.07;33.50;;;;;;;;;;4338074;32;318510;-77
2024/01/23 03:42:43;;;;;;;79.23;36.90;;;;;;;;;;4336344;32;319244;-77
2024/01/23 03:45:16;;;;;;;70.53;33.00;;;;;;;;;;4345785;32;319521;-77
2024/01/23 03:47:43;;;;;;;67.07;31.77;;;;;;;;;;4302428;32;418427;-77
2024/01/23 03:50:09;;;;;;;67.10;35.57;;;;;;;;;;4346657;32;319339;-78
2024/01/23 03:52:36;;;;;;;78.03;37.03;;;;;;;;;;4350957;32;319587;-78
2024/01/23 03:55:14;;;;;;;74.53;32.17;;;;;;;;;;4384873;32;319456;-78
2024/01/23 03:57:44;;;;;;;66.53;32.53;;;;;;;;;;4330812;32;319286;-78
2024/01/23 04:00:16;;;;;;;69.70;34.87;;;;;;;;;;4343938;32;319378;-79
2024/01/23 04:02:43;;;;;;;72.97;33.93;;;;;;;;;;4334361;32;418901;-79
2024/01/23 04:05:10;;;;;;;86.33;38.70;;;;;;;;;;4345468;32;319219;-79
2024/01/23 04:07:39;;;;;;;76.60;36.97;;;;;;;;;;4302092;32;318758;-78
2024/01/23 04:12:49;;;;;;;70.00;32.43;;;;;;;;;;4326660;32;391341;-78
2024/01/23 04:15:31;;;;;;;66.53;31.17;;;;;;;;;;4344490;32;357589;-78
2024/01/23 04:17:57;;;;;;;71.23;38.33;;;;;;;;;;4333662;32;419589;-79
2024/01/23 04:20:25;;;;;;;85.07;41.23;;;;;;;;;;4328923;32;319208;-78
2024/01/23 04:22:56;;;;;;;74.60;38.23;;;;;;;;;;4334154;32;318971;-79
2024/01/23 04:25:26;;;;;;;68.93;35.97;;;;;;;;;;4337209;32;319424;-78
2024/01/23 04:27:57;;;;;;;84.07;44.23;;;;;;;;;;4342485;32;317939;-79
2024/01/23 04:30:26;;;;;;;98.53;52.73;;;;;;;;;;4315714;32;319108;-79
2024/01/23 04:32:53;;;;;;;81.27;45.83;;;;;;;;;;4337921;32;319309;-79
2024/01/23 04:35:22;;;;;;;61.73;36.87;;;;;;;;;;4321839;32;318674;-79
2024/01/23 04:37:53;;;;;;;47.47;28.43;;;;;;;;;;4327505;32;318803;-78
2024/01/23 04:40:21;;;;;;;45.70;27.20;;;;;;;;;;4334989;32;318891;-79
2024/01/23 04:42:47;;;;;;;39.40;23.50;;;;;;;;;;4336931;32;319332;-79
2024/01/23 04:45:15;;;;;;;56.80;26.47;;;;;;;;;;4341911;32;319146;-78
2024/01/23 04:47:43;;;;;;;40.17;20.43;;;;;;;;;;4330035;32;419845;-79
2024/01/23 04:50:11;;;;;;;48.17;23.10;;;;;;;;;;4350093;32;318757;-79
2024/01/23 04:52:42;;;;;;;44.17;22.87;;;;;;;;;;4336718;32;319157;-78
2024/01/23 04:55:09;;;;;;;44.40;21.80;;;;;;;;;;4349531;32;318830;-78
2024/01/23 04:57:36;;;;;;;38.30;19.07;;;;;;;;;;4342470;32;319337;-78
2024/01/23 05:00:07;;;;;;;38.27;17.33;;;;;;;;;;4331632;32;318931;-79
2024/01/23 05:02:37;;;;;;;24.37;13.67;;;;;;;;;;4349096;32;319721;-79
2024/01/23 05:05:08;;;;;;;30.10;16.07;;;;;;;;;;4351127;32;318514;-79
2024/01/23 05:07:35;;;;;;;57.47;24.53;;;;;;;;;;4372204;32;318660;-79
2024/01/23 05:10:11;;;;;;;87.17;35.13;;;;;;;;;;4395123;32;319248;-78
2024/01/23 05:12:39;;;;;;;135.30;51.93;;;;;;;;;;4417081;32;318753;-79
2024/01/23 05:15:07;;;;;;;138.03;56.97;;;;;;;;;;4403543;32;320408;-78
2024/01/23 05:17:37;;;;;;;85.13;42.67;;;;;;;;;;4348970;32;320591;-78
2024/01/23 05:20:09;;;;;;;74.93;39.70;;;;;;;;;;4337721;32;319376;-77
2024/01/23 05:22:39;;;;;;;82.33;38.47;;;;;;;;;;4360666;32;319199;-78
2024/01/23 05:25:06;;;;;;;76.80;34.93;;;;;;;;;;4351931;32;319243;-78
2024/01/23 05:27:37;;;;;;;81.30;39.73;;;;;;;;;;4357363;32;318469;-77
2024/01/23 05:30:07;;;;;;;81.83;39.13;;;;;;;;;;4342547;32;318998;-77
2024/01/23 05:32:36;;;;;;;78.13;40.00;;;;;;;;;;4379250;32;319197;-77
2024/01/23 05:35:12;;;;;;;87.20;41.83;;;;;;;;;;4349377;32;319330;-78
2024/01/23 05:37:39;;;;;;;127.47;52.80;;;;;;;;;;4341721;32;319125;-78
2024/01/23 05:40:11;;;;;;;117.23;54.73;;;;;;;;;;4344773;32;320242;-79
2024/01/23 05:42:41;;;;;;;146.30;62.93;;;;;;;;;;4361784;32;320749;-79
2024/01/23 05:45:08;;;;;;;212.30;80.73;;;;;;;;;;4348630;32;320481;-79
2024/01/23 05:47:36;;;;;;;220.90;87.40;;;;;;;;;;4356125;32;320116;-78
2024/01/23 05:52:33;;;;;;;199.27;84.97;;;;;;;;;;4408860;32;320045;-79
2024/01/23 05:55:03;;;;;;;191.27;83.93;;;;;;;;;;4398731;32;320517;-79
2024/01/23 05:57:30;;;;;;;197.10;86.40;;;;;;;;;;4406948;32;350335;-79
2024/01/23 06:00:06;;;;;;;199.67;81.93;;;;;;;;;;4393072;32;344582;-79
2024/01/23 06:02:34;;;;;;;183.03;82.33;;;;;;;;;;4406878;32;319800;-80
2024/01/23 06:05:04;;;;;;;237.33;99.53;;;;;;;;;;4389588;32;319431;-79
2024/01/23 06:07:43;;;;;;;210.97;85.90;;;;;;;;;;4410805;32;320280;-79
2024/01/23 06:10:13;;;;;;;148.27;65.47;;;;;;;;;;4384749;32;319597;-79
2024/01/23 06:12:40;;;;;;;130.90;63.70;;;;;;;;;;4397223;32;319400;-79
2024/01/23 06:15:11;;;;;;;152.07;77.70;;;;;;;;;;4399271;32;320156;-79
2024/01/23 06:17:40;;;;;;;170.87;83.00;;;;;;;;;;4407324;32;320179;-79
2024/01/23 06:20:12;;;;;;;121.23;67.27;;;;;;;;;;4377108;32;320366;-79
2024/01/23 06:22:41;;;;;;;92.70;53.47;;;;;;;;;;4391964;32;320118;-79
2024/01/23 06:25:14;;;;;;;74.53;43.70;;;;;;;;;;4367536;32;318540;-79
2024/01/23 06:27:44;;;;;;;66.43;37.37;;;;;;;;;;4392282;32;318703;-79
2024/01/23 06:30:15;;;;;;;104.77;52.40;;;;;;;;;;4365882;32;318544;-79
2024/01/23 06:32:43;;;;;;;111.53;57.30;;;;;;;;;;4385979;32;320200;-79
2024/01/23 06:35:13;;;;;;;121.17;65.80;;;;;;;;;;4387445;32;320068;-79
2024/01/23 06:37:46;;;;;;;112.27;60.97;;;;;;;;;;4387815;32;320149;-79
2024/01/23 06:40:15;;;;;;;146.40;72.27;;;;;;;;;;4385006;32;319508;-79
2024/01/23 06:42:42;;;;;;;184.57;100.23;;;;;;;;;;4396092;32;342867;-79
2024/01/23 06:45:12;;;;;;;170.67;91.50;;;;;;;;;;4377100;32;336512;-79
2024/01/23 06:47:39;;;;;;;207.07;105.60;;;;;;;;;;4397273;32;319739;-78
2024/01/23 06:50:21;;;;;;;153.90;83.47;;;;;;;;;;4349432;32;321031;-78
2024/01/23 06:52:53;;;;;;;139.63;79.33;;;;;;;;;;4376420;32;319601;-78
2024/01/23 06:55:23;;;;;;;167.50;81.73;;;;;;;;;;4356938;32;419624;-79
2024/01/23 06:57:52;;;;;;;191.17;95.83;;;;;;;;;;4372544;32;319793;-79
2024/01/23 07:00:21;;;;;;;173.30;85.33;;;;;;;;;;4399978;32;320314;-78
2024/01/23 07:02:48;;;;;;;159.60;81.53;;;;;;;;;;4393574;32;319571;-78
2024/01/23 07:05:23;;;;;;;150.90;80.17;;;;;;;;;;4364770;32;420853;-79
2024/01/23 07:07:50;;;;;;;140.43;76.37;;;;;;;;;;4359642;32;320488;-78
2024/01/23 07:10:20;;;;;;;131.80;65.33;;;;;;;;;;4370574;32;319989;-79
2024/01/23 07:13:02;;;;;;;99.57;55.63;;;;;;;;;;4371209;32;319668;-78
2024/01/23 07:15:30;;;;;;;94.53;55.97;;;;;;;;;;4380393;32;414695;-76
2024/01/23 07:17:58;;;;;;;102.80;57.50;;;;;;;;;;4393985;32;318880;-78
2024/01/23 07:20:29;;;;;;;116.17;61.33;;;;;;;;;;4403950;32;319958;-78
2024/01/23 07:22:59;;;;;;;115.23;61.00;;;;;;;;;;4325771;32;321080;-77
2024/01/23 07:25:27;;;;;;;116.70;59.33;;;;;;;;;;4343470;32;320443;-77
2024/01/23 07:27:54;;;;;;;385.33;276.93;;;;;;;;;;4309187;32;341178;-78
2024/01/23 07:30:23;;;;;;;137.47;70.77;;;;;;;;;;4325785;32;321392;-78
2024/01/23 07:35:33;;;;;;;137.73;68.43;;;;;;;;;;4358239;32;319910;-79
2024/01/23 07:38:00;;;;;;;138.47;70.10;;;;;;;;;;4334058;32;320367;-78
2024/01/23 07:40:31;;;;;;;149.83;74.03;;;;;;;;;;4347644;32;352905;-78
2024/01/23 07:42:58;;;;;;;143.23;75.10;;;;;;;;;;4346903;32;320244;-79
2024/01/23 07:45:25;;;;;;;142.40;78.23;;;;;;;;;;4385285;32;319969;-79
2024/01/23 07:47:54;;;;;;;180.80;83.63;;;;;;;;;;4351098;32;321156;-78
2024/01/23 07:50:24;;;;;;;142.97;76.63;;;;;;;;;;4340118;32;320036;-78
2024/01/23 07:52:51;;;;;;;142.10;71.93;;;;;;;;;;4339708;32;319807;-78
2024/01/23 07:55:18;;;;;;;123.23;62.87;;;;;;;;;;4360738;32;319932;-78
2024/01/23 07:57:49;;;;;;;114.17;60.83;;;;;;;;;;4356029;32;319763;-79
2024/01/23 08:00:18;;;;;;;97.77;49.00;;;;;;;;;;4301493;32;419929;-78
2024/01/23 08:02:46;;;;;;;80.70;43.77;;;;;;;;;;4336225;32;347189;-79
2024/01/23 08:05:18;;;;;;;84.23;43.27;;;;;;;;;;4330321;32;318864;-79
2024/01/23 08:07:48;;;;;;;89.50;42.80;;;;;;;;;;4345990;32;335072;-78
2024/01/23 08:10:21;;;;;;;66.00;35.40;;;;;;;;;;4314392;32;418827;-79
2024/01/23 08:12:51;;;;;;;73.03;38.67;;;;;;;;;;4349761;32;318728;-78
2024/01/23 08:15:23;;;;;;;80.40;36.53;;;;;;;;;;4339606;32;420395;-78
2024/01/23 08:17:51;;;;;;;78.10;33.10;;;;;;;;;;4320443;32;318771;-79
2024/01/23 08:20:21;;;;;;;60.37;32.77;;;;;;;;;;4339347;32;349534;-78
2024/01/23 08:22:49;;;;;;;68.70;33.70;;;;;;;;;;4340273;32;318917;-79
2024/01/23 08:25:16;;;;;;;47.67;26.47;;;;;;;;;;4329095;32;418399;-78
2024/01/23 08:27:44;;;;;;;45.20;23.67;;;;;;;;;;4348125;32;318741;-79
2024/01/23 08:30:22;;;;;;;44.90;24.23;;;;;;;;;;4335655;32;318841;-79
2024/01/23 08:35:34;;;;;;;47.93;21.53;;;;;;;;;;4383250;32;391061;-78
2024/01/23 08:38:04;;;;;;;38.97;22.27;;;;;;;;;;4341167;32;318835;-78
2024/01/23 08:40:33;;;;;;;46.60;24.73;;;;;;;;;;4341699;32;318765;-78
2024/01/23 08:43:00;;;;;;;35.87;20.37;;;;;;;;;;4366383;32;318532;-78
2024/01/23 08:45:43;;;;;;;30.80;19.57;;;;;;;;;;4348863;32;318308;-78
2024/01/23 08:48:10;;;;;;;36.30;19.83;;;;;;;;;;4324733;32;319124;-78
2024/01/23 08:50:36;;;;;;;31.33;20.23;;;;;;;;;;4356359;32;317344;-79
2024/01/23 08:53:08;;;;;;;105.03;46.07;;;;;;;;;;4335776;32;332541;-78
2024/01/23 08:55:36;;;;;;;54.07;27.67;;;;;;;;;;4358162;32;320211;-78
2024/01/23 08:58:04;;;;;;;80.50;41.00;;;;;;;;;;4345753;32;318742;-78
2024/01/23 09:00:38;;;;;;;55.50;28.53;;;;;;;;;;4364820;32;319688;-77
2024/01/23 09:03:06;;;;;;;43.23;23.83;;;;;;;;;;4381604;32;318905;-77
2024/01/23 09:05:33;;;;;;;42.00;23.00;;;;;;;;;;4395632;32;318535;-77
2024/01/23 09:08:00;;;;;;;48.87;24.53;;;;;;;;;;4394671;32;318240;-77
2024/01/23 09:10:28;;;;;;;42.80;23.77;;;;;;;;;;4383660;32;342448;-77
2024/01/23 09:12:56;;;;;;;52.83;26.87;;;;;;;;;;4380592;32;318022;-77
2024/01/23 09:15:22;;;;;;;53.10;27.50;;;;;;;;;;4392896;32;317245;-79
2024/01/23 09:17:52;;;;;;;52.63;27.20;;;;;;;;;;4398137;32;357105;-78
2024/01/23 09:20:19;;;;;;;49.23;25.20;;;;;;;;;;4390517;32;418444;-77
2024/01/23 09:22:47;;;;;;;55.90;26.53;;;;;;;;;;4401028;32;316385;-77
2024/01/23 09:25:14;;;;;;;52.97;29.27;;;;;;;;;;4391697;32;318270;-77
2024/01/23 09:27:44;;;;;;;53.23;29.93;;;;;;;;;;4387841;32;316609;-77
2024/01/23 09:30:12;;;;;;;65.03;32.80;;;;;;;;;;4376000;32;346732;-78
2024/01/23 09:32:42;;;;;;;54.60;28.90;;;;;;;;;;4402747;32;353846;-78
2024/01/23 09:35:17;;;;;;;58.30;31.10;;;;;;;;;;4388660;32;318342;-77
2024/01/23 09:37:43;;;;;;;55.50;29.80;;;;;;;;;;4395909;32;317792;-78
2024/01/23 09:40:14;;;;;;;56.90;30.50;;;;;;;;;;4390614;32;317979;-77
2024/01/23 09:42:44;;;;;;;58.43;30.37;;;;;;;;;;4395823;32;317004;-77
2024/01/23 09:45:26;;;;;;;66.53;33.03;;;;;;;;;;4386682;32;317998;-78
2024/01/23 09:47:53;;;;;;;57.57;30.07;;;;;;;;;;4385124;32;317697;-77
2024/01/23 09:50:27;;;;;;;59.90;32.90;;;;;;;;;;4389144;32;317198;-78
2024/01/23 09:53:05;;;;;;;72.07;33.80;;;;;;;;;;4373816;32;316658;-78
2024/01/23 09:55:34;;;;;;;59.73;32.77;;;;;;;;;;4365243;32;318141;-79
2024/01/23 09:58:03;;;;;;;59.67;34.77;;;;;;;;;;4381983;32;318092;-78
2024/01/23 10:00:30;;;;;;;63.33;34.47;;;;;;;;;;4397661;32;318240;-78
2024/01/23 10:02:59;;;;;;;57.80;32.93;;;;;;;;;;4375947;32;317700;-77
2024/01/23 10:05:30;;;;;;;59.83;35.87;;;;;;;;;;4378457;32;316543;-77
2024/01/23 10:08:11;;;;;;;71.70;33.97;;;;;;;;;;4344921;32;317617;-77
2024/01/23 10:10:41;;;;;;;71.67;32.60;;;;;;;;;;4386499;32;317691;-77
2024/01/23 10:13:12;;;;;;;66.37;33.80;;;;;;;;;;4367194;32;317626;-77
2024/01/23 10:15:48;;;;;;;52.07;26.00;;;;;;;;;;4395976;32;317712;-78
2024/01/23 10:18:17;;;;;;;48.33;27.20;;;;;;;;;;4371431;32;317672;-76
2024/01/23 10:20:47;;;;;;;41.57;22.87;;;;;;;;;;4375671;32;316397;-76
2024/01/23 10:23:18;;;;;;;40.87;21.53;;;;;;;;;;4378138;32;318077;-78
2024/01/23 10:25:51;;;;;;;39.80;19.53;;;;;;;;;;4393732;32;316599;-77
2024/01/23 10:28:23;;;;;;;38.37;20.23;;;;;;;;;;4341371;32;417771;-78
2024/01/23 10:30:53;;;;;;;30.63;18.40;;;;;;;;;;4383809;32;318073;-78
2024/01/23 10:33:21;;;;;;;26.60;16.73;;;;;;;;;;4381162;32;316598;-79
2024/01/23 10:36:01;;;;;;;32.90;15.57;;;;;;;;;;4382942;32;317565;-78
2024/01/23 10:38:32;;;;;;;22.17;14.00;;;;;;;;;;4360235;32;417633;-77
2024/01/23 10:41:03;;;;;;;25.23;14.13;;;;;;;;;;4373079;32;316684;-78
2024/01/23 10:43:33;;;;;;;28.33;16.27;;;;;;;;;;4406836;32;338395;-78
2024/01/23 10:46:03;;;;;;;31.43;14.37;;;;;;;;;;4376512;32;318206;-78
2024/01/23 10:48:34;;;;;;;22.80;13.20;;;;;;;;;;4386609;32;334046;-78
2024/01/23 10:51:18;;;;;;;22.87;14.27;;;;;;;;;;4369487;32;317994;-78
2024/01/23 10:54:04;;;;;;;20.13;13.07;;;;;;;;;;4396906;32;318506;-78
2024/01/23 10:56:43;;;;;;;28.63;13.23;;;;;;;;;;4382824;32;420049;-79
2024/01/23 10:59:17;;;;;;;30.23;13.87;;;;;;;;;;4400188;32;317769;-77
2024/01/23 11:01:48;;;;;;;23.30;13.97;;;;;;;;;;4409554;32;316791;-78
2024/01/23 11:04:18;;;;;;;39.77;16.00;;;;;;;;;;4366279;32;418133;-77
2024/01/23 11:07:10;;;;;;;38.93;18.93;;;;;;;;;;4402528;32;317937;-78
2024/01/23 11:09:51;;;;;;;26.13;16.03;;;;;;;;;;4370793;32;418422;-78
2024/01/23 11:12:26;;;;;;;32.17;15.67;;;;;;;;;;4376007;32;420156;-78
2024/01/23 11:15:01;;;;;;;26.50;14.23;;;;;;;;;;4335976;32;318292;-78
2024/01/23 11:17:31;;;;;;;24.93;15.30;;;;;;;;;;4344855;32;317846;-78
2024/01/23 11:20:08;;;;;;;32.87;17.30;;;;;;;;;;4331446;32;318260;-78
2024/01/23 11:22:49;;;;;;;26.93;15.83;;;;;;;;;;4355528;32;317028;-79
2024/01/23 11:25:27;;;;;;;33.33;18.00;;;;;;;;;;4322984;32;418531;-79
2024/01/23 11:27:54;;;;;;;33.47;18.27;;;;;;;;;;4334178;32;318170;-79
2024/01/23 11:30:22;;;;;;;29.10;18.27;;;;;;;;;;4354722;32;317695;-79
2024/01/23 11:32:49;;;;;;;30.03;18.23;;;;;;;;;;4352950;32;317497;-77
2024/01/23 11:35:16;;;;;;;34.53;18.07;;;;;;;;;;4327653;32;416958;-79
2024/01/23 11:37:50;;;;;;;27.20;17.17;;;;;;;;;;4353945;32;317617;-78
2024/01/23 11:40:34;;;;;;;29.17;17.47;;;;;;;;;;4325496;32;417941;-79
2024/01/23 11:43:05;;;;;;;34.27;17.27;;;;;;;;;;4344514;32;318284;-78
2024/01/23 11:45:35;;;;;;;28.33;17.60;;;;;;;;;;4347175;32;316737;-79
2024/01/23 11:48:06;;;;;;;41.33;21.23;;;;;;;;;;4346399;32;316522;-82
2024/01/23 11:50:35;;;;;;;42.30;21.97;;;;;;;;;;4350334;32;318152;-79
2024/01/23 11:53:06;;;;;;;40.07;19.53;;;;;;;;;;4329806;32;317575;-77
2024/01/23 11:55:35;;;;;;;37.87;19.90;;;;;;;;;;4332493;32;317972;-79
2024/01/23 11:58:03;;;;;;;79.43;38.10;;;;;;;;;;4336193;32;316615;-78
2024/01/23 12:00:30;;;;;;;42.40;22.43;;;;;;;;;;4346585;32;317777;-78
2024/01/23 12:02:58;;;;;;;38.47;21.23;;;;;;;;;;4359855;32;317837;-77
2024/01/23 12:05:26;;;;;;;38.70;18.50;;;;;;;;;;4348949;32;318329;-78
2024/01/23 12:07:54;;;;;;;39.50;20.23;;;;;;;;;;4361388;32;316884;-78
2024/01/23 12:10:27;;;;;;;28.67;16.87;;;;;;;;;;4344464;32;339517;-78
2024/01/23 12:13:00;;;;;;;30.40;16.37;;;;;;;;;;4357153;32;316761;-78
2024/01/23 12:15:40;;;;;;;30.53;16.33;;;;;;;;;;4339402;32;318131;-77
2024/01/23 12:18:12;;;;;;;45.13;19.67;;;;;;;;;;4338851;32;359433;-78
2024/01/23 12:20:42;;;;;;;31.03;17.77;;;;;;;;;;4336619;32;317857;-77
2024/01/23 12:23:12;;;;;;;40.73;21.43;;;;;;;;;;4329638;32;318157;-78
2024/01/23 12:25:44;;;;;;;35.03;18.93;;;;;;;;;;4327629;32;318003;-78
2024/01/23 12:28:15;;;;;;;34.03;19.67;;;;;;;;;;4303804;32;317209;-80
2024/01/23 12:30:55;;;;;;;40.67;21.93;;;;;;;;;;4347877;32;318927;-78
2024/01/23 12:33:22;;;;;;;40.20;21.90;;;;;;;;;;4340612;32;318091;-78
2024/01/23 12:35:49;;;;;;;36.37;21.10;;;;;;;;;;4349906;32;316768;-77
2024/01/23 12:38:18;;;;;;;40.30;19.07;;;;;;;;;;4339358;32;345031;-77
2024/01/23 12:40:49;;;;;;;29.97;18.90;;;;;;;;;;4362548;32;331157;-78
2024/01/23 12:43:27;;;;;;;40.20;19.20;;;;;;;;;;4340094;32;317549;-77
2024/01/23 12:45:56;;;;;;;29.07;17.07;;;;;;;;;;4353224;32;316831;-77
2024/01/23 12:48:36;;;;;;;39.83;20.37;;;;;;;;;;4324829;32;317892;-76
2024/01/23 12:51:05;;;;;;;39.40;18.23;;;;;;;;;;4329643;32;317736;-77
2024/01/23 12:53:33;;;;;;;37.40;17.90;;;;;;;;;;4342107;32;317404;-78
2024/01/23 12:56:04;;;;;;;27.30;15.87;;;;;;;;;;4344034;32;317954;-79
2024/01/23 12:58:32;;;;;;;63.37;19.03;;;;;;;;;;4334118;32;420600;-78
2024/01/23 13:01:00;;;;;;;44.83;18.70;;;;;;;;;;4355318;32;318039;-79
2024/01/23 13:03:29;;;;;;;36.87;17.70;;;;;;;;;;4337759;32;318414;-79
2024/01/23 13:05:59;;;;;;;26.17;15.23;;;;;;;;;;4347672;32;317705;-79
2024/01/23 13:08:28;;;;;;;31.53;15.50;;;;;;;;;;4338627;32;317747;-78
2024/01/23 13:10:58;;;;;;;27.60;12.60;;;;;;;;;;4353224;32;317850;-78
2024/01/23 13:13:29;;;;;;;32.03;14.07;;;;;;;;;;4347789;32;317618;-78
2024/01/23 13:15:58;;;;;;;41.93;19.57;;;;;;;;;;4394537;32;317065;-79
2024/01/23 13:18:29;;;;;;;42.43;28.80;;;;;;;;;;4406778;32;318457;-78
2024/01/23 13:20:58;;;;;;;29.83;16.07;;;;;;;;;;4382626;32;317842;-77
2024/01/23 13:23:26;;;;;;;22.83;12.50;;;;;;;;;;4405565;32;318434;-78
2024/01/23 13:25:56;;;;;;;45.90;19.40;;;;;;;;;;4375791;32;317913;-79
2024/01/23 13:28:26;;;;;;;94.77;49.23;;;;;;;;;;4342317;32;317745;-78
2024/01/23 13:31:04;;;;;;;55.10;31.27;;;;;;;;;;4345209;32;336961;-77
2024/01/23 13:33:33;;;;;;;29.17;16.83;;;;;;;;;;4347018;32;417179;-77
2024/01/23 13:36:04;;;;;;;37.63;25.50;;;;;;;;;;4346474;32;317683;-77
2024/01/23 13:38:31;;;;;;;42.20;25.90;;;;;;;;;;4337564;32;417716;-77
2024/01/23 13:41:02;;;;;;;61.53;28.23;;;;;;;;;;4360662;32;317477;-77
2024/01/23 13:43:30;;;;;;;45.77;25.03;;;;;;;;;;4320534;32;418088;-78
2024/01/23 13:46:14;;;;;;;41.57;23.20;;;;;;;;;;4357852;32;318252;-77
2024/01/23 13:48:40;;;;;;;44.70;22.63;;;;;;;;;;4328457;32;417515;-77
2024/01/23 13:51:07;;;;;;;31.23;21.37;;;;;;;;;;4342451;32;318321;-76
2024/01/23 13:53:43;;;;;;;40.80;22.70;;;;;;;;;;4343189;32;318229;-77
2024/01/23 13:56:14;;;;;;;35.33;18.70;;;;;;;;;;4347841;32;317598;-76
2024/01/23 13:58:43;;;;;;;33.97;20.07;;;;;;;;;;4374732;32;317953;-77
2024/01/23 14:01:15;;;;;;;41.37;22.10;;;;;;;;;;4342703;32;317739;-77
2024/01/23 14:03:42;;;;;;;48.57;24.87;;;;;;;;;;4344425;32;318058;-77
2024/01/23 14:06:10;;;;;;;51.60;23.80;;;;;;;;;;4342282;32;317577;-76
2024/01/23 14:08:42;;;;;;;55.07;28.17;;;;;;;;;;4337668;32;318386;-77
2024/01/23 14:11:13;;;;;;;59.47;32.33;;;;;;;;;;4349340;32;318234;-77
2024/01/23 14:13:44;;;;;;;64.00;35.90;;;;;;;;;;4349781;32;317629;-77
2024/01/23 14:16:12;;;;;;;65.90;35.23;;;;;;;;;;4347972;32;318228;-77
2024/01/23 14:18:41;;;;;;;58.63;34.33;;;;;;;;;;4397049;32;316917;-77
2024/01/23 14:21:12;;;;;;;60.63;36.07;;;;;;;;;;4385968;32;347472;-77
2024/01/23 14:23:42;;;;;;;140.07;70.73;;;;;;;;;;4359241;32;318480;-77
2024/01/23 14:26:11;;;;;;;85.13;51.23;;;;;;;;;;4350283;32;319805;-77
2024/01/23 14:28:43;;;;;;;79.10;39.43;;;;;;;;;;4336618;32;317595;-76
2024/01/23 14:31:31;;;;;;;65.40;39.43;;;;;;;;;;4352902;32;317601;-75
2024/01/23 14:34:01;;;;;;;67.17;40.30;;;;;;;;;;4352394;32;318138;-77